Time;durP1;ratioP1;P1;durP2;ratioP2;P2;SDS_P1;SDS_P2;PMS_P1;PMS_P2;Temp;Humidity;BMP_temperature;BMP_pressure;BME280_temperature;BME280_humidity;BME280_pressure;Samples;Min_cycle;Max_cycle;Signal;HPM_P1;HPM_P2
2023/06/25 00:01:18;;;;;;;;;6.50;6.50;;;;;27.21;37.21;101320.97;5082129;28;45249;-57
2023/06/25 00:03:44;;;;;;;;;9.75;9.75;;;;;27.19;37.88;101322.91;5082442;28;45547;-57
2023/06/25 00:06:10;;;;;;;;;8.50;8.50;;;;;27.15;37.49;101321.44;5082291;28;45317;-57
2023/06/25 00:08:35;;;;;;;;;9.75;9.00;;;;;27.12;37.35;101304.63;5082257;28;45169;-57
2023/06/25 00:11:01;;;;;;;;;7.50;7.50;;;;;27.09;37.45;101316.50;5081961;28;45173;-57
2023/06/25 00:13:26;;;;;;;;;11.25;10.00;;;;;27.06;37.80;101316.75;5082385;28;45193;-57
2023/06/25 00:15:51;;;;;;;;;8.00;8.00;;;;;27.04;38.26;101321.38;5080660;28;45512;-57
2023/06/25 00:18:17;;;;;;;;;9.75;8.00;;;;;27.01;37.78;101313.53;5080838;28;45598;-57
2023/06/25 00:20:42;;;;;;;;;11.00;8.00;;;;;26.99;37.66;101321.72;5081684;28;46101;-57
2023/06/25 00:23:08;;;;;;;;;7.50;6.75;;;;;26.95;37.62;101308.59;5082030;28;45346;-57
2023/06/25 00:25:33;;;;;;;;;8.25;8.00;;;;;26.89;37.88;101305.41;5080689;28;45302;-57
2023/06/25 00:28:00;;;;;;;;;10.00;8.25;;;;;26.89;38.18;101305.41;5080737;28;45463;-57
2023/06/25 00:30:25;;;;;;;;;7.25;7.25;;;;;26.86;37.70;101292.13;5080169;28;48284;-57
2023/06/25 00:32:54;;;;;;;;;8.50;7.00;;;;;26.85;38.44;101297.63;5081710;28;45314;-57
2023/06/25 00:35:24;;;;;;;;;7.75;7.00;;;;;26.82;38.31;101292.47;5062597;28;45309;-57
2023/06/25 00:37:51;;;;;;;;;6.25;6.25;;;;;26.78;38.41;101294.53;5061694;28;45330;-57
2023/06/25 00:40:17;;;;;;;;;7.00;5.75;;;;;26.74;38.63;101290.34;5059724;28;47091;-57
2023/06/25 00:42:43;;;;;;;;;8.75;8.75;;;;;26.71;38.38;101295.94;5061308;28;45327;-57
2023/06/25 00:45:10;;;;;;;;;9.75;7.50;;;;;26.69;38.65;101289.78;5059825;28;45235;-57
2023/06/25 00:47:37;;;;;;;;;5.75;5.75;;;;;26.65;38.11;101291.84;5061427;28;45284;-57
2023/06/25 00:50:03;;;;;;;;;6.00;5.50;;;;;26.60;38.14;101284.13;5061261;28;46225;-58
2023/06/25 00:52:29;;;;;;;;;9.00;7.50;;;;;26.60;38.83;101280.53;5061216;28;45299;-57
2023/06/25 00:54:54;;;;;;;;;8.00;7.00;;;;;26.57;38.23;101275.41;5061212;28;45252;-57
2023/06/25 00:57:21;;;;;;;;;10.50;9.75;;;;;26.53;38.23;101272.06;5061453;28;45498;-57
2023/06/25 00:59:48;;;;;;;;;8.25;8.25;;;;;26.49;38.37;101286.75;5080952;28;45623;-57
2023/06/25 01:02:35;;;;;;;;;7.25;7.00;;;;;26.43;38.72;101281.81;5081304;27;45255;-57
2023/06/25 01:05:11;;;;;;;;;7.75;7.25;;;;;26.36;38.37;101281.38;5081545;28;45273;-57
2023/06/25 01:07:42;;;;;;;;;7.50;6.75;;;;;26.32;38.60;101276.34;5081412;27;45542;-57
2023/06/25 01:10:10;;;;;;;;;11.75;8.75;;;;;26.32;39.10;101268.25;5080991;28;47163;-57
2023/06/25 01:12:35;;;;;;;;;7.50;7.50;;;;;26.30;38.47;101265.66;5081369;28;45291;-57
2023/06/25 01:15:01;;;;;;;;;8.00;7.00;;;;;26.27;38.48;101269.44;5081021;28;45291;-57
2023/06/25 01:17:29;;;;;;;;;10.25;8.75;;;;;26.23;39.15;101259.84;5079781;28;45225;-56
2023/06/25 01:19:54;;;;;;;;;10.25;8.75;;;;;26.24;38.64;101250.81;5080788;28;46340;-57
2023/06/25 01:22:30;;;;;;;;;6.75;6.00;;;;;26.22;39.12;101255.44;5080880;28;45334;-57
2023/06/25 01:24:59;;;;;;;;;6.00;6.00;;;;;26.20;38.70;101253.81;5080880;27;45337;-57
2023/06/25 01:27:25;;;;;;;;;7.25;7.25;;;;;26.18;39.32;101258.50;5081097;27;45417;-57
2023/06/25 01:29:51;;;;;;;;;9.50;6.50;;;;;26.14;38.53;101255.16;5080020;28;46047;-57
2023/06/25 01:32:17;;;;;;;;;8.75;7.50;;;;;26.11;39.14;101268.81;5081068;28;45523;-57
2023/06/25 01:34:43;;;;;;;;;8.00;6.50;;;;;26.06;39.06;101262.91;5066938;28;45361;-57
2023/06/25 01:37:08;;;;;;;;;7.50;6.00;;;;;26.05;39.38;101266.53;5060577;28;45544;-58
2023/06/25 01:39:34;;;;;;;;;10.25;8.50;;;;;26.02;39.57;101258.69;5060432;28;46386;-56
2023/06/25 01:41:59;;;;;;;;;7.00;6.00;;;;;25.99;39.18;101258.88;5060539;28;45338;-57
2023/06/25 01:44:27;;;;;;;;;9.25;8.75;;;;;25.96;39.08;101263.53;5059197;28;45462;-57
2023/06/25 01:46:53;;;;;;;;;8.00;8.00;;;;;25.92;39.60;101251.28;5060542;28;45494;-57
2023/06/25 01:49:18;;;;;;;;;8.25;7.25;;;;;25.89;39.37;101253.31;5060279;28;45381;-57
2023/06/25 01:51:43;;;;;;;;;10.50;8.50;;;;;25.84;39.29;101252.78;5060730;28;45352;-57
2023/06/25 01:54:08;;;;;;;;;7.25;6.50;;;;;25.79;39.31;101242.34;5059183;28;45403;-57
2023/06/25 01:56:34;;;;;;;;;8.50;7.75;;;;;25.74;39.30;101247.19;5060172;28;46164;-57
2023/06/25 01:58:59;;;;;;;;;8.25;6.00;;;;;25.71;39.74;101244.69;5073550;28;45267;-57
2023/06/25 02:01:24;;;;;;;;;9.00;8.50;;;;;25.63;39.40;101237.16;5078920;28;45222;-56
2023/06/25 02:03:50;;;;;;;;;9.75;9.75;;;;;25.63;39.94;101247.94;5080837;28;45447;-57
2023/06/25 02:06:15;;;;;;;;;8.75;8.75;;;;;25.53;39.78;101231.56;5080423;27;45227;-57
2023/06/25 02:08:41;;;;;;;;;10.00;8.25;;;;;25.53;39.56;101234.25;5080398;28;45458;-57
2023/06/25 02:11:07;;;;;;;;;9.00;8.50;;;;;25.52;39.65;101234.38;5080192;28;45222;-57
2023/06/25 02:13:33;;;;;;;;;8.50;8.00;;;;;25.49;40.05;101232.75;5066349;28;45286;-57
2023/06/25 02:15:59;;;;;;;;;10.75;7.25;;;;;25.49;40.05;101223.84;5075348;28;45317;-57
2023/06/25 02:18:25;;;;;;;;;9.50;8.50;;;;;25.42;40.19;101220.69;5068135;28;48318;-57
2023/06/25 02:20:50;;;;;;;;;9.00;9.00;;;;;25.47;40.36;101232.00;5059548;28;45283;-57
2023/06/25 02:23:15;;;;;;;;;8.25;6.50;;;;;25.42;40.45;101226.97;5060295;28;45302;-57
2023/06/25 02:25:41;;;;;;;;;6.75;6.75;;;;;25.41;39.92;101229.75;5059701;28;45248;-57
2023/06/25 02:28:06;;;;;;;;;8.25;8.25;;;;;25.35;40.03;101228.31;5059850;28;46028;-57
2023/06/25 02:30:31;;;;;;;;;9.00;9.00;;;;;25.31;39.93;101227.66;5059615;28;45334;-57
2023/06/25 02:32:57;;;;;;;;;10.75;9.50;;;;;25.29;40.13;101220.66;5059700;28;47860;-57
2023/06/25 02:35:22;;;;;;;;;11.75;8.75;;;;;25.25;40.32;101209.25;5061010;28;45545;-57
2023/06/25 02:37:47;;;;;;;;;10.00;8.75;;;;;25.25;40.40;101203.88;5059742;28;45332;-57
2023/06/25 02:40:13;;;;;;;;;8.00;7.00;;;;;25.23;40.55;101205.81;5073506;28;45314;-57
2023/06/25 02:42:38;;;;;;;;;8.25;8.00;;;;;25.21;40.25;101199.69;5063136;28;45284;-57
2023/06/25 02:45:04;;;;;;;;;10.50;10.00;;;;;25.23;40.29;101204.94;5062973;28;45596;-57
2023/06/25 02:47:29;;;;;;;;;8.00;7.00;;;;;25.22;40.19;101206.78;5063277;28;45368;-57
2023/06/25 02:49:55;;;;;;;;;10.00;10.00;;;;;25.23;40.23;101199.56;5061831;28;45492;-57
2023/06/25 02:52:20;;;;;;;;;6.75;5.75;;;;;25.20;40.39;101195.25;5063491;28;45239;-57
2023/06/25 02:54:45;;;;;;;;;8.50;8.50;;;;;25.19;40.33;101201.59;5076538;28;45324;-57
2023/06/25 02:57:11;;;;;;;;;9.75;9.25;;;;;25.16;40.72;101204.50;5063120;28;46252;-57
2023/06/25 02:59:36;;;;;;;;;8.00;7.75;;;;;25.17;40.75;101200.88;5080099;28;45211;-57
2023/06/25 03:02:01;;;;;;;;;10.00;8.75;;;;;25.16;40.81;101199.13;5083658;28;45271;-57
2023/06/25 03:04:27;;;;;;;;;8.25;8.25;;;;;25.13;40.28;101194.84;5083274;28;45471;-57
2023/06/25 03:06:52;;;;;;;;;8.25;8.25;;;;;25.11;40.52;101199.44;5083231;28;45327;-57
2023/06/25 03:09:18;;;;;;;;;10.50;9.25;;;;;25.10;40.58;101203.09;5083212;28;45382;-57
2023/06/25 03:11:43;;;;;;;;;7.25;6.25;;;;;25.08;41.00;101201.47;5083234;28;45257;-57
2023/06/25 03:14:08;;;;;;;;;10.50;10.00;;;;;25.06;40.74;101206.13;5082842;28;47605;-57
2023/06/25 03:16:34;;;;;;;;;11.50;7.25;;;;;25.04;40.88;101197.28;5082694;28;46124;-57
2023/06/25 03:19:00;;;;;;;;;7.75;7.75;;;;;25.04;40.78;101205.34;5082953;28;45318;-57
2023/06/25 03:21:25;;;;;;;;;9.00;7.00;;;;;25.03;40.61;101203.63;5083123;28;45326;-56
2023/06/25 03:23:50;;;;;;;;;8.00;8.00;;;;;25.02;41.21;101207.28;5082899;28;45241;-57
2023/06/25 03:26:16;;;;;;;;;11.50;10.00;;;;;25.01;41.07;101197.50;5082616;28;46096;-57
2023/06/25 03:28:41;;;;;;;;;8.50;8.00;;;;;24.97;40.85;101205.75;5081576;28;46087;-57
2023/06/25 03:31:06;;;;;;;;;8.25;8.00;;;;;24.96;40.83;101201.34;5081358;28;45438;-57
2023/06/25 03:33:32;;;;;;;;;8.00;6.25;;;;;24.95;41.05;101196.09;5078560;28;45323;-57
2023/06/25 03:35:57;;;;;;;;;7.50;6.25;;;;;24.93;40.94;101198.00;5062245;28;52997;-57
2023/06/25 03:38:22;;;;;;;;;8.00;8.00;;;;;24.91;41.03;101186.50;5062584;28;45373;-57
2023/06/25 03:40:48;;;;;;;;;9.00;7.00;;;;;24.90;40.85;101182.94;5068593;28;45459;-57
2023/06/25 03:43:13;;;;;;;;;9.25;8.00;;;;;24.91;41.05;101179.31;5062206;28;51094;-57
2023/06/25 03:45:38;;;;;;;;;8.00;7.00;;;;;24.92;40.84;101177.50;5062124;28;46415;-57
2023/06/25 03:48:05;;;;;;;;;7.00;7.00;;;;;24.91;40.74;101178.44;5062287;28;45223;-57
2023/06/25 03:50:30;;;;;;;;;8.75;8.00;;;;;24.90;40.96;101185.63;5062882;28;45371;-57
2023/06/25 03:52:55;;;;;;;;;8.25;8.25;;;;;24.88;40.90;101178.66;5061622;28;45228;-57
2023/06/25 03:55:21;;;;;;;;;8.00;6.00;;;;;24.86;40.90;101192.19;5060853;28;47574;-57
2023/06/25 03:57:46;;;;;;;;;7.00;7.00;;;;;24.85;41.08;101190.47;5064293;28;45454;-56
2023/06/25 04:00:12;;;;;;;;;10.25;8.00;;;;;24.82;41.15;101180.78;5082333;28;45210;-57
2023/06/25 04:02:37;;;;;;;;;12.00;8.00;;;;;24.82;40.97;101188.00;5081142;28;45292;-57
2023/06/25 04:05:03;;;;;;;;;6.00;5.50;;;;;24.81;40.97;101184.44;5082319;28;45557;-57
2023/06/25 04:07:28;;;;;;;;;4.50;3.50;;;;;24.81;41.02;101178.22;5082246;28;45342;-57
2023/06/25 04:09:53;;;;;;;;;7.75;6.00;;;;;24.79;40.92;101188.19;5082201;28;46453;-57
2023/06/25 04:12:18;;;;;;;;;7.50;6.25;;;;;24.79;41.10;101185.50;5082132;28;47551;-57
2023/06/25 04:14:44;;;;;;;;;6.25;5.25;;;;;24.78;41.26;101178.41;5081902;28;46660;-57
2023/06/25 04:17:09;;;;;;;;;5.25;4.75;;;;;24.77;40.83;101182.94;5080797;28;45273;-57
2023/06/25 04:19:34;;;;;;;;;8.50;7.00;;;;;24.76;40.91;101180.34;5082359;28;45429;-57
2023/06/25 04:22:00;;;;;;;;;5.50;5.50;;;;;24.76;41.01;101185.72;5081990;28;45235;-57
2023/06/25 04:24:25;;;;;;;;;8.00;7.00;;;;;24.75;41.29;101184.84;5080752;28;47066;-57
2023/06/25 04:26:50;;;;;;;;;9.50;8.25;;;;;24.74;41.13;101183.16;5081714;28;45322;-57
2023/06/25 04:29:16;;;;;;;;;5.75;5.50;;;;;24.73;41.18;101183.22;5082110;28;45307;-57
2023/06/25 04:31:41;;;;;;;;;7.50;7.00;;;;;24.74;40.91;101182.25;5081764;28;45323;-57
2023/06/25 04:34:07;;;;;;;;;8.75;7.00;;;;;24.73;40.86;101183.22;5072883;27;46394;-57
2023/06/25 04:36:33;;;;;;;;;5.25;5.25;;;;;24.74;41.30;101187.63;5061374;28;45408;-57
2023/06/25 04:38:58;;;;;;;;;7.00;7.00;;;;;24.72;41.21;101182.38;5061847;28;45280;-57
2023/06/25 04:41:24;;;;;;;;;8.75;6.50;;;;;24.73;40.84;101183.22;5061211;28;45242;-57
2023/06/25 04:43:49;;;;;;;;;7.25;7.25;;;;;24.72;40.99;101190.44;5061405;28;46087;-57
2023/06/25 04:46:14;;;;;;;;;6.00;6.00;;;;;24.71;41.19;101187.88;5059905;28;45418;-57
2023/06/25 04:48:44;;;;;;;;;9.50;8.25;;;;;24.69;41.20;101190.66;5061754;28;45383;-57
2023/06/25 04:51:09;;;;;;;;;8.50;8.50;;;;;24.69;41.01;101189.78;5061239;28;45477;-57
2023/06/25 04:53:34;;;;;;;;;6.75;6.75;;;;;24.68;41.41;101197.00;5061244;28;45343;-57
2023/06/25 04:56:00;;;;;;;;;5.00;5.00;;;;;24.65;41.40;101197.19;5060998;28;45355;-57
2023/06/25 04:58:25;;;;;;;;;7.75;7.25;;;;;24.60;41.64;101194.78;5070117;28;45253;-57
2023/06/25 05:00:50;;;;;;;;;10.00;6.75;;;;;24.60;41.35;101196.59;5080855;28;52603;-57
2023/06/25 05:03:15;;;;;;;;;5.00;5.00;;;;;24.59;41.43;101200.22;5079311;28;45930;-57
2023/06/25 05:05:41;;;;;;;;;6.75;5.50;;;;;24.58;41.26;101199.38;5079567;28;46142;-57
2023/06/25 05:08:06;;;;;;;;;6.25;6.25;;;;;24.57;41.35;101191.44;5081658;28;45608;-57
2023/06/25 05:10:32;;;;;;;;;7.25;7.25;;;;;24.57;41.39;101197.66;5079927;28;45253;-57
2023/06/25 05:12:59;;;;;;;;;7.00;7.00;;;;;24.57;41.47;101194.13;5081311;28;46161;-57
2023/06/25 05:15:25;;;;;;;;;9.00;7.75;;;;;24.57;40.89;101191.44;5080784;28;45319;-57
2023/06/25 05:17:50;;;;;;;;;9.00;8.25;;;;;24.56;40.94;101195.94;5080033;28;45523;-58
2023/06/25 05:20:15;;;;;;;;;8.50;7.25;;;;;24.53;41.66;101188.09;5080812;28;48895;-57
2023/06/25 05:22:41;;;;;;;;;8.25;8.00;;;;;24.56;41.34;101197.78;5081071;28;46011;-57
2023/06/25 05:25:06;;;;;;;;;6.75;6.00;;;;;24.54;41.38;101199.69;5080595;28;50964;-57
2023/06/25 05:27:32;;;;;;;;;8.25;7.50;;;;;24.53;41.53;101200.63;5079960;28;45324;-57
2023/06/25 05:29:57;;;;;;;;;5.25;5.25;;;;;24.49;41.41;101198.16;5080700;28;45514;-57
2023/06/25 05:32:22;;;;;;;;;8.00;7.50;;;;;24.49;41.80;101194.63;5079048;28;61785;-57
2023/06/25 05:34:47;;;;;;;;;9.00;8.00;;;;;24.49;41.56;101203.53;5065420;28;50477;-57
2023/06/25 05:37:13;;;;;;;;;10.00;8.00;;;;;24.50;41.26;101207.97;5059321;28;45347;-58
2023/06/25 05:39:38;;;;;;;;;10.00;8.50;;;;;24.50;41.37;101210.66;5059034;28;45328;-57
2023/06/25 05:42:04;;;;;;;;;8.25;8.00;;;;;24.50;41.75;101205.28;5060036;28;56876;-57
2023/06/25 05:44:29;;;;;;;;;6.00;6.00;;;;;24.51;41.89;101206.13;5060226;28;45272;-57
2023/06/25 05:46:55;;;;;;;;;7.50;7.50;;;;;24.50;41.59;101202.59;5060762;28;45446;-58
2023/06/25 05:49:20;;;;;;;;;9.50;9.00;;;;;24.52;41.66;101199.78;5060299;28;45588;-57
2023/06/25 05:51:46;;;;;;;;;10.00;9.25;;;;;24.50;41.35;101196.34;5060556;28;45629;-57
2023/06/25 05:54:11;;;;;;;;;7.00;7.00;;;;;24.52;41.62;101191.72;5060312;28;45307;-57
2023/06/25 05:56:36;;;;;;;;;7.50;6.75;;;;;24.52;41.92;101199.78;5060417;28;45268;-57
2023/06/25 05:59:02;;;;;;;;;9.75;8.00;;;;;24.54;41.28;101197.00;5073748;28;50825;-57
2023/06/25 06:01:27;;;;;;;;;9.75;8.00;;;;;24.55;41.76;101193.34;5079245;27;46821;-58
2023/06/25 06:03:52;;;;;;;;;7.25;6.00;;;;;24.56;42.01;101195.94;5080665;28;45298;-58
2023/06/25 06:06:18;;;;;;;;;10.00;8.00;;;;;24.56;41.68;101198.63;5080648;28;45417;-58
2023/06/25 06:08:43;;;;;;;;;7.50;7.50;;;;;24.57;41.30;101200.34;5080529;28;45192;-57
2023/06/25 06:11:10;;;;;;;;;8.00;7.25;;;;;24.57;41.90;101194.97;5080293;28;45334;-57
2023/06/25 06:13:35;;;;;;;;;12.75;10.00;;;;;24.59;41.53;101192.19;5080356;28;45275;-58
2023/06/25 06:16:01;;;;;;;;;9.25;7.50;;;;;24.59;41.71;101200.22;5078796;27;45307;-57
2023/06/25 06:18:26;;;;;;;;;7.75;7.75;;;;;24.62;41.86;101195.53;5080425;28;45556;-58
2023/06/25 06:20:51;;;;;;;;;8.00;8.00;;;;;24.64;41.84;101192.72;5079905;28;46665;-57
2023/06/25 06:23:17;;;;;;;;;8.75;8.50;;;;;24.66;42.06;101202.44;5079025;28;45352;-57
2023/06/25 06:25:42;;;;;;;;;10.75;10.25;;;;;24.68;41.85;101199.69;5080077;28;45394;-57
2023/06/25 06:28:08;;;;;;;;;9.50;9.50;;;;;24.66;41.71;101198.91;5079638;28;45424;-57
2023/06/25 06:30:33;;;;;;;;;10.00;9.00;;;;;24.67;42.28;101197.94;5079965;28;45347;-57
2023/06/25 06:32:58;;;;;;;;;8.25;8.00;;;;;24.67;42.18;101196.09;5073287;28;45369;-57
2023/06/25 06:35:24;;;;;;;;;8.25;8.00;;;;;24.69;41.89;101187.09;5066672;28;45691;-57
2023/06/25 06:37:49;;;;;;;;;10.50;9.50;;;;;24.71;41.96;101193.25;5059313;28;45576;-57
2023/06/25 06:40:14;;;;;;;;;10.75;10.25;;;;;24.72;41.95;101178.84;5058847;28;45333;-57
2023/06/25 06:42:39;;;;;;;;;9.00;9.00;;;;;24.73;41.65;101180.53;5058037;28;51638;-57
2023/06/25 06:45:05;;;;;;;;;10.50;10.50;;;;;24.77;41.83;101184.75;5059114;28;45217;-57
2023/06/25 06:47:30;;;;;;;;;11.25;9.00;;;;;24.74;41.90;101180.47;5059510;28;45626;-58
2023/06/25 06:49:56;;;;;;;;;8.75;8.75;;;;;24.85;42.13;101187.78;5059773;28;47782;-58
2023/06/25 06:52:24;;;;;;;;;8.75;8.75;;;;;24.83;42.18;101184.34;5059414;28;45411;-57
2023/06/25 06:54:49;;;;;;;;;11.50;9.50;;;;;24.87;42.02;101182.28;5058029;28;45333;-62
2023/06/25 06:57:14;;;;;;;;;8.25;8.25;;;;;24.88;41.80;101175.97;5058172;28;45265;-76
2023/06/25 06:59:40;;;;;;;;;11.50;11.25;;;;;24.92;41.86;101174.81;5078345;28;45224;-78
2023/06/25 07:02:05;;;;;;;;;9.50;8.75;;;;;24.94;41.90;101178.22;5078252;28;45329;-72
2023/06/25 07:04:30;;;;;;;;;9.75;9.75;;;;;24.99;41.79;101182.34;5078450;28;45358;-75
2023/06/25 07:06:56;;;;;;;;;12.00;9.75;;;;;24.99;41.71;101174.28;5079473;28;45438;-76
2023/06/25 07:09:24;;;;;;;;;11.50;9.75;;;;;25.04;41.88;101173.09;5079505;28;46163;-76
2023/06/25 07:11:49;;;;;;;;;9.25;9.25;;;;;25.05;41.75;101167.59;5079440;28;45313;-76
2023/06/25 07:14:14;;;;;;;;;10.50;9.50;;;;;25.09;41.84;101170.94;5079257;28;45488;-76
2023/06/25 07:16:41;;;;;;;;;10.00;10.00;;;;;25.12;41.32;101168.06;5079452;28;45524;-78
2023/06/25 07:19:07;;;;;;;;;11.00;8.50;;;;;25.16;41.56;101172.25;5079324;28;46381;-78
2023/06/25 07:21:32;;;;;;;;;13.25;12.75;;;;;25.20;42.00;101170.22;5079275;28;45334;-73
2023/06/25 07:23:58;;;;;;;;;10.00;10.00;;;;;25.25;42.01;101163.53;5079628;28;45326;-73
2023/06/25 07:26:23;;;;;;;;;11.75;11.75;;;;;25.28;41.69;101174.09;5079123;28;45410;-71
2023/06/25 07:28:48;;;;;;;;;8.75;8.50;;;;;25.34;41.76;101169.25;5082258;28;51455;-72
2023/06/25 07:31:13;;;;;;;;;13.75;9.00;;;;;25.36;41.58;101168.22;5082569;28;45321;-68
2023/06/25 07:33:39;;;;;;;;;10.75;9.75;;;;;25.41;41.82;101154.44;5078260;28;45235;-68
2023/06/25 07:36:04;;;;;;;;;12.50;10.00;;;;;25.46;41.67;101163.03;5061177;28;45719;-70
2023/06/25 07:38:29;;;;;;;;;12.00;9.75;;;;;25.47;42.04;101160.25;5062195;28;45415;-71
2023/06/25 07:40:55;;;;;;;;;12.50;9.00;;;;;25.51;41.88;101160.88;5062347;28;45314;-73
2023/06/25 07:43:20;;;;;;;;;12.25;10.00;;;;;25.51;41.67;101158.19;5060874;28;45249;-72
2023/06/25 07:45:45;;;;;;;;;12.25;11.00;;;;;25.59;41.41;101157.66;5062090;28;45311;-68
2023/06/25 07:48:11;;;;;;;;;12.25;11.75;;;;;25.62;41.60;101163.69;5060796;28;45465;-76
2023/06/25 07:50:37;;;;;;;;;11.50;11.50;;;;;25.70;42.07;101164.94;5060953;28;45309;-73
2023/06/25 07:53:02;;;;;;;;;13.75;11.50;;;;;25.68;41.36;101153.44;5062261;28;45173;-73
2023/06/25 07:55:27;;;;;;;;;10.00;10.00;;;;;25.75;41.55;101163.66;5061995;28;45481;-71
2023/06/25 07:57:53;;;;;;;;;12.00;11.50;;;;;25.82;41.88;101174.81;5066142;28;45322;-59
2023/06/25 08:00:19;;;;;;;;;9.00;9.00;;;;;25.86;41.76;101159.31;5069716;28;45332;-72
2023/06/25 08:02:44;;;;;;;;;14.75;13.50;;;;;25.89;41.71;101154.56;5075080;28;45349;-73
2023/06/25 08:05:10;;;;;;;;;13.25;12.50;;;;;25.94;41.35;101160.47;5061954;28;45378;-75
2023/06/25 08:07:36;;;;;;;;;12.75;11.00;;;;;25.97;41.54;101159.41;5060458;28;46984;-69
2023/06/25 08:10:02;;;;;;;;;10.50;10.00;;;;;26.03;41.36;101152.72;5061807;28;45322;-74
2023/06/25 08:12:27;;;;;;;;;8.50;8.50;;;;;26.09;41.07;101155.84;5061968;28;45445;-65
2023/06/25 08:14:53;;;;;;;;;14.00;13.50;;;;;26.13;41.14;101152.94;5061516;28;45288;-64
2023/06/25 08:17:18;;;;;;;;;9.00;9.00;;;;;26.18;40.98;101143.53;5061658;28;45431;-63
2023/06/25 08:19:43;;;;;;;;;11.75;10.25;;;;;26.22;40.97;101150.41;5060376;28;45738;-64
2023/06/25 08:22:09;;;;;;;;;12.00;11.00;;;;;26.27;41.23;101145.53;5061831;28;45157;-64
2023/06/25 08:24:34;;;;;;;;;10.25;10.25;;;;;26.33;40.76;101149.63;5061890;28;45223;-63
2023/06/25 08:26:59;;;;;;;;;15.00;15.00;;;;;26.37;41.16;101145.72;5061272;28;46007;-63
2023/06/25 08:29:25;;;;;;;;;11.50;10.25;;;;;26.41;40.76;101149.03;5061629;28;45251;-65
2023/06/25 08:31:50;;;;;;;;;13.25;11.75;;;;;26.47;41.20;101150.44;5073696;28;45183;-66
2023/06/25 08:34:15;;;;;;;;;9.00;9.00;;;;;26.52;40.69;101146.41;5062811;28;52064;-64
2023/06/25 08:36:40;;;;;;;;;12.25;11.00;;;;;26.55;41.27;101143.47;5073057;28;46913;-64
2023/06/25 08:39:06;;;;;;;;;10.50;10.50;;;;;26.59;41.11;101131.50;5061381;28;45322;-64
2023/06/25 08:41:31;;;;;;;;;11.00;10.00;;;;;26.65;40.63;101138.22;5061130;28;46613;-63
2023/06/25 08:44:00;;;;;;;;;10.75;10.75;;;;;26.69;40.82;101136.16;5061337;28;45320;-63
2023/06/25 08:46:27;;;;;;;;;10.25;10.25;;;;;26.74;41.08;101139.41;5073728;28;47325;-64
2023/06/25 08:48:54;;;;;;;;;14.75;13.00;;;;;26.78;40.66;101138.22;5066992;28;45423;-62
2023/06/25 08:51:24;;;;;;;;;13.00;10.25;;;;;26.81;40.78;101134.41;5061156;28;45316;-63
2023/06/25 08:53:50;;;;;;;;;12.00;11.25;;;;;26.85;40.90;101131.34;5061227;28;45272;-64
2023/06/25 08:56:19;;;;;;;;;13.00;10.25;;;;;26.89;40.72;101130.16;5060834;28;46236;-63
2023/06/25 08:58:47;;;;;;;;;11.00;9.75;;;;;26.93;40.88;101128.94;5072474;28;45178;-61
2023/06/25 09:01:12;;;;;;;;;12.25;12.00;;;;;26.98;40.95;101127.69;5079663;28;45358;-65
2023/06/25 09:03:41;;;;;;;;;17.25;16.00;;;;;27.00;40.51;101126.59;5081405;28;45262;-65
2023/06/25 09:06:15;;;;;;;;;11.75;11.50;;;;;27.04;40.85;101121.84;5079819;27;45476;-66
2023/06/25 09:08:44;;;;;;;;;13.00;10.75;;;;;27.10;40.54;101121.34;5081093;28;45334;-68
2023/06/25 09:11:10;;;;;;;;;11.75;10.00;;;;;27.14;40.73;101116.59;5081224;28;45218;-68
2023/06/25 09:13:38;;;;;;;;;14.50;12.00;;;;;27.17;40.48;101113.63;5081009;28;45426;-70
2023/06/25 09:16:08;;;;;;;;;14.75;12.75;;;;;27.23;39.85;101116.72;5080781;28;45434;-67
2023/06/25 09:18:33;;;;;;;;;12.75;12.50;;;;;27.27;40.32;101113.75;5080531;28;45319;-68
2023/06/25 09:21:03;;;;;;;;;15.00;14.25;;;;;27.33;40.34;101113.28;5080808;28;45263;-68
2023/06/25 09:23:29;;;;;;;;;12.50;12.50;;;;;27.38;40.32;101116.47;5080966;28;45302;-68
2023/06/25 09:25:54;;;;;;;;;12.00;11.50;;;;;27.43;40.13;101113.44;5096467;27;46258;-68
2023/06/25 09:28:20;;;;;;;;;12.25;12.00;;;;;27.45;40.50;101106.94;5080887;28;45252;-69
2023/06/25 09:30:46;;;;;;;;;11.50;9.75;;;;;27.52;40.31;101107.31;5079664;27;45518;-68
2023/06/25 09:33:13;;;;;;;;;11.50;11.50;;;;;27.59;40.23;101099.59;5079415;28;45469;-69
2023/06/25 09:35:39;;;;;;;;;22.50;21.00;;;;;27.64;40.09;101102.78;5071639;28;45403;-70
2023/06/25 09:38:05;;;;;;;;;13.75;13.25;;;;;27.70;39.92;101099.56;5060334;28;45531;-69
2023/06/25 09:40:31;;;;;;;;;14.75;12.25;;;;;27.74;39.52;101099.19;5060741;28;45223;-70
2023/06/25 09:42:59;;;;;;;;;15.75;13.75;;;;;27.81;39.82;101096.84;5054437;28;45273;-70
2023/06/25 09:45:25;;;;;;;;;12.50;12.00;;;;;27.86;39.58;101097.34;5060358;28;46311;-70
2023/06/25 09:47:54;;;;;;;;;11.75;11.75;;;;;27.90;39.49;101095.25;5060232;28;45528;-70
2023/06/25 09:50:27;;;;;;;;;13.25;13.00;;;;;27.96;39.26;101092.03;5059915;28;45219;-70
2023/06/25 09:52:56;;;;;;;;;10.25;10.00;;;;;27.99;39.32;101082.81;5058773;28;45555;-70
2023/06/25 09:55:22;;;;;;;;;12.75;12.75;;;;;28.08;39.40;101089.34;5059978;28;46057;-70
2023/06/25 09:57:48;;;;;;;;;13.00;12.25;;;;;28.14;39.21;101092.38;5062058;28;45393;-70
2023/06/25 10:00:15;;;;;;;;;12.00;10.50;;;;;28.20;39.07;101082.88;5080469;27;45500;-70
2023/06/25 10:02:41;;;;;;;;;13.00;11.25;;;;;28.25;38.81;101082.50;5079030;27;45449;-70
2023/06/25 10:05:06;;;;;;;;;12.25;11.25;;;;;28.31;38.92;101079.28;5080253;27;46093;-69
2023/06/25 10:07:32;;;;;;;;;10.00;9.00;;;;;28.37;39.24;101070.66;5080212;28;45311;-71
2023/06/25 10:09:57;;;;;;;;;12.50;12.00;;;;;28.44;38.75;101077.28;5080499;28;46009;-70
2023/06/25 10:12:23;;;;;;;;;15.25;14.50;;;;;28.50;38.43;101070.47;5080130;27;45293;-64
2023/06/25 10:14:49;;;;;;;;;12.75;10.75;;;;;28.58;38.60;101073.38;5079445;28;45842;-65
2023/06/25 10:17:15;;;;;;;;;9.25;9.00;;;;;28.67;38.14;101063.66;5080046;28;45163;-65
2023/06/25 10:19:57;;;;;;;;;12.50;11.00;;;;;28.73;38.22;101055.03;5079987;28;45455;-64
2023/06/25 10:22:24;;;;;;;;;10.25;10.25;;;;;28.79;38.34;101050.94;5080247;28;45460;-64
2023/06/25 10:24:51;;;;;;;;;11.25;10.75;;;;;28.89;38.43;101050.97;5079864;28;46006;-64
2023/06/25 10:27:26;;;;;;;;;12.25;11.00;;;;;28.98;37.89;101058.28;5078420;28;45329;-64
2023/06/25 10:29:56;;;;;;;;;13.00;11.25;;;;;29.06;37.81;101047.66;5079687;28;45173;-66
2023/06/25 10:32:23;;;;;;;;;12.00;12.00;;;;;29.16;38.03;101048.56;5080339;28;45486;-66
2023/06/25 10:35:02;;;;;;;;;10.50;10.50;;;;;29.26;38.11;101048.59;5064907;28;46306;-65
2023/06/25 10:37:29;;;;;;;;;9.25;9.25;;;;;29.39;37.66;101047.53;5058260;28;46562;-64
2023/06/25 10:40:02;;;;;;;;;8.50;8.50;;;;;29.51;37.63;101052.69;5059504;28;45406;-65
2023/06/25 10:42:29;;;;;;;;;10.75;10.75;;;;;29.72;37.61;101051.72;5059675;28;45305;-65
2023/06/25 10:44:55;;;;;;;;;11.25;8.75;;;;;29.94;37.25;101060.66;5059191;28;45395;-64
2023/06/25 10:47:20;;;;;;;;;10.75;10.75;;;;;30.22;37.51;101056.25;5059613;28;45351;-64
2023/06/25 10:49:45;;;;;;;;;14.75;11.25;;;;;30.55;37.76;101053.25;5076101;28;45369;-65
2023/06/25 10:52:11;;;;;;;;;13.00;11.75;;;;;30.87;37.61;101047.47;5078628;28;45342;-65
2023/06/25 10:54:36;;;;;;;;;10.25;10.25;;;;;31.23;36.99;101050.38;5062334;28;46252;-66
2023/06/25 10:57:09;;;;;;;;;12.00;10.25;;;;;31.60;37.02;101044.03;5057988;28;45366;-66
2023/06/25 10:59:35;;;;;;;;;9.25;8.75;;;;;31.96;36.93;101036.94;5076433;28;45565;-71
2023/06/25 11:02:19;;;;;;;;;11.00;11.00;;;;;32.36;37.18;101039.19;5080039;28;45277;-65
2023/06/25 11:04:58;;;;;;;;;12.75;11.25;;;;;32.77;36.90;101040.53;5081667;28;47790;-72
2023/06/25 11:07:25;;;;;;;;;9.00;9.00;;;;;33.14;36.21;101039.38;5083089;28;45318;-67
2023/06/25 11:10:00;;;;;;;;;8.25;8.25;;;;;33.49;35.75;101034.78;5083257;28;45268;-66
2023/06/25 11:12:28;;;;;;;;;11.25;9.00;;;;;33.80;35.13;101037.75;5082769;28;45407;-65
2023/06/25 11:14:54;;;;;;;;;9.75;9.25;;;;;34.06;35.23;101035.94;5082629;28;46214;-66